Time;durP1;ratioP1;P1;durP2;ratioP2;P2;SDS_P1;SDS_P2;PMS_P1;PMS_P2;Temp;Humidity;BMP_temperature;BMP_pressure;BME280_temperature;BME280_humidity;BME280_pressure;Samples;Min_cycle;Max_cycle;Signal;HPM_P1;HPM_P2
2022/11/06 00:00:28;;;;;;;;;;;10.10;99.90;;;;;;5101017;27;1048;-66
2022/11/06 00:02:56;;;;;;;;;;;10.10;99.90;;;;;;5099261;28;1196;-67
2022/11/06 00:08:05;;;;;;;;;;;10.00;99.90;;;;;;5101302;28;1056;-67
2022/11/06 00:10:31;;;;;;;;;;;10.00;99.90;;;;;;5079919;28;1218;-67
2022/11/06 00:12:56;;;;;;;;;;;9.80;99.90;;;;;;5089712;28;1094;-67
2022/11/06 00:15:22;;;;;;;;;;;9.90;99.90;;;;;;5098054;28;2000;-67
2022/11/06 00:17:49;;;;;;;;;;;9.90;99.90;;;;;;5107107;27;1073;-67
2022/11/06 00:20:15;;;;;;;;;;;9.90;99.90;;;;;;5102824;27;1234;-66
2022/11/06 00:22:40;;;;;;;;;;;9.90;99.90;;;;;;5105386;27;1010;-66
2022/11/06 00:25:06;;;;;;;;;;;9.90;99.90;;;;;;5103422;27;1065;-67
2022/11/06 00:27:34;;;;;;;;;;;9.90;99.90;;;;;;5106391;27;1216;-67
2022/11/06 00:30:00;;;;;;;;;;;9.80;99.90;;;;;;5105281;27;1287;-67
2022/11/06 00:32:26;;;;;;;;;;;9.70;99.90;;;;;;5105303;27;982;-68
2022/11/06 00:34:51;;;;;;;;;;;9.60;99.90;;;;;;5110197;27;1976;-68
2022/11/06 00:37:17;;;;;;;;;;;9.50;99.90;;;;;;5084902;28;1072;-68
2022/11/06 00:39:43;;;;;;;;;;;9.40;99.90;;;;;;5103119;28;1082;-68
2022/11/06 00:42:08;;;;;;;;;;;9.30;99.90;;;;;;5107917;27;1061;-67
2022/11/06 00:44:34;;;;;;;;;;;9.30;99.90;;;;;;5086225;28;1689;-67
2022/11/06 00:47:00;;;;;;;;;;;9.20;99.90;;;;;;5100190;28;1024;-67
2022/11/06 00:49:26;;;;;;;;;;;9.20;99.90;;;;;;5107277;27;1102;-68
2022/11/06 00:51:52;;;;;;;;;;;9.10;99.90;;;;;;5114891;27;1359;-67
2022/11/06 00:54:18;;;;;;;;;;;9.10;99.90;;;;;;5122527;27;1977;-66
2022/11/06 00:56:43;;;;;;;;;;;9.00;99.90;;;;;;5101431;27;1062;-68
2022/11/06 00:59:10;;;;;;;;;;;9.00;99.90;;;;;;5121813;27;1040;-67
2022/11/06 01:01:38;;;;;;;;;;;9.00;99.90;;;;;;5121954;27;948;-67
2022/11/06 01:04:05;;;;;;;;;;;9.00;99.90;;;;;;5120531;27;1307;-67
2022/11/06 01:06:31;;;;;;;;;;;9.00;99.90;;;;;;5121133;27;1084;-67
2022/11/06 01:08:57;;;;;;;;;;;9.00;99.90;;;;;;5121280;27;1075;-67
2022/11/06 01:11:24;;;;;;;;;;;9.00;99.90;;;;;;5121553;27;982;-67
2022/11/06 01:13:51;;;;;;;;;;;9.00;99.90;;;;;;5120499;27;995;-67
2022/11/06 01:16:16;;;;;;;;;;;9.00;99.90;;;;;;5121581;27;1918;-67
2022/11/06 01:18:43;;;;;;;;;;;9.00;99.90;;;;;;5120188;27;1131;-67
2022/11/06 01:21:09;;;;;;;;;;;8.90;99.90;;;;;;5102183;27;1080;-67
2022/11/06 01:23:35;;;;;;;;;;;8.90;99.90;;;;;;5120957;27;1301;-67
2022/11/06 01:26:02;;;;;;;;;;;9.00;99.90;;;;;;5120665;27;1025;-67
2022/11/06 01:28:28;;;;;;;;;;;8.90;99.90;;;;;;5119067;27;1138;-67
2022/11/06 01:30:54;;;;;;;;;;;9.00;99.90;;;;;;5121776;27;1298;-67
2022/11/06 01:33:19;;;;;;;;;;;9.00;99.90;;;;;;5120119;27;1128;-67
2022/11/06 01:35:47;;;;;;;;;;;9.00;99.90;;;;;;5120918;27;1909;-67
2022/11/06 01:38:13;;;;;;;;;;;9.00;99.90;;;;;;5120167;27;1188;-67
2022/11/06 01:40:40;;;;;;;;;;;8.90;99.90;;;;;;5120804;27;1082;-67
2022/11/06 01:43:10;;;;;;;;;;;9.00;99.90;;;;;;5120722;27;1088;-67
2022/11/06 01:45:37;;;;;;;;;;;9.00;99.90;;;;;;5120693;27;1266;-67
2022/11/06 01:48:04;;;;;;;;;;;9.00;99.90;;;;;;5120644;27;1003;-67
2022/11/06 01:50:29;;;;;;;;;;;9.00;99.90;;;;;;5118187;27;1150;-67
2022/11/06 01:52:59;;;;;;;;;;;9.00;99.90;;;;;;5108710;27;1534;-67
2022/11/06 01:55:29;;;;;;;;;;;9.00;99.90;;;;;;5104447;27;1929;-67
2022/11/06 01:57:55;;;;;;;;;;;9.10;99.90;;;;;;5106876;27;1016;-67
2022/11/06 02:00:21;;;;;;;;;;;9.00;99.90;;;;;;5109768;27;958;-67
2022/11/06 02:02:47;;;;;;;;;;;9.00;99.90;;;;;;5110578;27;1007;-67
2022/11/06 02:05:13;;;;;;;;;;;9.00;99.90;;;;;;5108405;27;1504;-67
2022/11/06 02:07:39;;;;;;;;;;;9.00;99.90;;;;;;5103151;27;1278;-67
2022/11/06 02:10:05;;;;;;;;;;;9.00;99.90;;;;;;5110983;27;977;-67
2022/11/06 02:12:42;;;;;;;;;;;9.00;99.90;;;;;;5104110;27;1062;-67
2022/11/06 02:15:09;;;;;;;;;;;8.90;99.90;;;;;;5103884;27;1930;-68
2022/11/06 02:17:43;;;;;;;;;;;9.00;99.90;;;;;;5084650;27;1159;-67
2022/11/06 02:20:14;;;;;;;;;;;9.00;99.90;;;;;;5099289;28;1382;-67
2022/11/06 02:22:50;;;;;;;;;;;9.00;99.90;;;;;;5082696;28;1005;-67
2022/11/06 02:25:16;;;;;;;;;;;9.00;99.90;;;;;;5104420;27;1103;-67
2022/11/06 02:27:44;;;;;;;;;;;9.00;99.90;;;;;;5106162;27;963;-67
2022/11/06 02:30:10;;;;;;;;;;;9.00;99.90;;;;;;5108169;27;1382;-67
2022/11/06 02:32:39;;;;;;;;;;;9.10;99.90;;;;;;5106987;27;966;-67
2022/11/06 02:35:24;;;;;;;;;;;9.10;99.90;;;;;;5105479;27;1910;-67
2022/11/06 02:37:52;;;;;;;;;;;9.10;99.90;;;;;;5105312;27;1426;-67
2022/11/06 02:40:20;;;;;;;;;;;9.20;99.90;;;;;;5107759;27;1082;-67
2022/11/06 02:42:48;;;;;;;;;;;9.00;99.90;;;;;;5101425;27;1119;-67
2022/11/06 02:45:16;;;;;;;;;;;9.00;99.90;;;;;;5102571;27;1039;-67
2022/11/06 02:47:42;;;;;;;;;;;8.90;99.90;;;;;;5083081;28;1153;-67
2022/11/06 02:50:12;;;;;;;;;;;9.00;99.90;;;;;;5101571;27;1092;-67
2022/11/06 02:52:40;;;;;;;;;;;8.90;99.90;;;;;;5116735;27;1271;-67
2022/11/06 02:55:09;;;;;;;;;;;8.90;99.90;;;;;;5119440;27;1961;-67
2022/11/06 02:57:37;;;;;;;;;;;8.90;99.90;;;;;;5118209;27;1119;-67
2022/11/06 03:00:05;;;;;;;;;;;8.80;99.90;;;;;;5118928;27;1058;-67
2022/11/06 03:02:35;;;;;;;;;;;8.80;99.90;;;;;;5118384;27;1065;-67
2022/11/06 03:05:10;;;;;;;;;;;9.00;99.90;;;;;;5116660;27;1326;-67
2022/11/06 03:07:39;;;;;;;;;;;8.90;99.90;;;;;;5119128;27;1068;-67
2022/11/06 03:10:05;;;;;;;;;;;8.90;99.90;;;;;;5118466;27;1127;-67
2022/11/06 03:12:32;;;;;;;;;;;8.80;99.90;;;;;;5119004;27;1051;-67
2022/11/06 03:15:04;;;;;;;;;;;8.90;99.90;;;;;;5118880;27;1914;-67
2022/11/06 03:17:39;;;;;;;;;;;8.90;99.90;;;;;;5117695;27;1112;-67
2022/11/06 03:20:13;;;;;;;;;;;8.90;99.90;;;;;;5119024;27;1132;-67
2022/11/06 03:22:42;;;;;;;;;;;8.90;99.90;;;;;;5118598;27;1215;-67
2022/11/06 03:25:15;;;;;;;;;;;8.90;99.90;;;;;;5098845;27;1148;-67
2022/11/06 03:28:14;;;;;;;;;;;8.90;99.90;;;;;;5118993;27;1025;-67
2022/11/06 03:30:43;;;;;;;;;;;8.90;99.90;;;;;;5118085;27;1707;-67
2022/11/06 03:33:25;;;;;;;;;;;8.90;99.90;;;;;;5118386;27;1090;-67
2022/11/06 03:35:53;;;;;;;;;;;8.90;99.90;;;;;;5118803;27;1913;-67
2022/11/06 03:38:22;;;;;;;;;;;8.90;99.90;;;;;;5118448;27;1003;-68
2022/11/06 03:40:50;;;;;;;;;;;8.90;99.90;;;;;;5109808;27;1151;-67
2022/11/06 03:43:18;;;;;;;;;;;8.90;99.90;;;;;;5118439;27;1034;-67
2022/11/06 03:45:45;;;;;;;;;;;8.90;99.90;;;;;;5114938;27;1071;-67
2022/11/06 03:48:18;;;;;;;;;;;8.90;99.90;;;;;;5119001;27;1007;-67
2022/11/06 03:50:53;;;;;;;;;;;8.90;99.90;;;;;;5118017;27;1084;-66
2022/11/06 03:53:23;;;;;;;;;;;8.90;99.90;;;;;;5116801;27;1078;-67
2022/11/06 03:55:53;;;;;;;;;;;8.90;99.90;;;;;;5098743;28;1913;-67
2022/11/06 03:58:22;;;;;;;;;;;8.90;99.90;;;;;;5098620;27;1004;-67
2022/11/06 04:00:49;;;;;;;;;;;8.90;99.90;;;;;;5117478;27;1060;-67
2022/11/06 04:03:18;;;;;;;;;;;8.90;99.90;;;;;;5115291;27;1051;-67
2022/11/06 04:05:50;;;;;;;;;;;8.90;99.90;;;;;;5118047;28;1492;-67
2022/11/06 04:13:56;;;;;;;;;;;8.90;99.90;;;;;;5118209;28;1078;-67
2022/11/06 04:16:24;;;;;;;;;;;9.00;99.90;;;;;;5118738;28;1967;-67
2022/11/06 04:18:49;;;;;;;;;;;9.00;99.90;;;;;;5099339;28;1043;-67
2022/11/06 04:21:25;;;;;;;;;;;8.90;99.90;;;;;;5117738;28;1055;-67
2022/11/06 04:26:52;;;;;;;;;;;8.90;99.90;;;;;;5118110;28;1039;-67
2022/11/06 04:29:22;;;;;;;;;;;8.90;99.90;;;;;;5118169;28;1033;-67
2022/11/06 04:31:53;;;;;;;;;;;8.90;99.90;;;;;;5118693;28;1504;-67
2022/11/06 04:34:26;;;;;;;;;;;8.90;99.90;;;;;;5118004;28;1000;-67
2022/11/06 04:36:52;;;;;;;;;;;8.80;99.90;;;;;;5118008;28;1012;-67
2022/11/06 04:39:24;;;;;;;;;;;8.90;99.90;;;;;;5117147;28;1116;-67
2022/11/06 04:42:04;;;;;;;;;;;8.80;99.90;;;;;;5117754;28;1023;-67
2022/11/06 04:44:30;;;;;;;;;;;8.90;99.90;;;;;;5118247;28;1030;-67
2022/11/06 04:46:58;;;;;;;;;;;8.90;99.90;;;;;;5117543;28;1058;-67
2022/11/06 04:49:25;;;;;;;;;;;8.90;99.90;;;;;;5117542;28;1047;-67
2022/11/06 04:51:51;;;;;;;;;;;8.90;99.90;;;;;;5117795;28;1297;-67
2022/11/06 04:54:16;;;;;;;;;;;8.90;99.90;;;;;;5118371;28;1071;-67
2022/11/06 04:56:42;;;;;;;;;;;8.90;99.90;;;;;;5116836;28;1973;-67
2022/11/06 04:59:09;;;;;;;;;;;8.90;99.90;;;;;;5118049;28;1003;-67
2022/11/06 05:01:35;;;;;;;;;;;8.90;99.90;;;;;;5118226;28;1094;-67
2022/11/06 05:04:01;;;;;;;;;;;8.90;99.90;;;;;;5120486;27;1450;-67
2022/11/06 05:06:27;;;;;;;;;;;8.90;99.90;;;;;;5122362;27;1012;-66
2022/11/06 05:08:52;;;;;;;;;;;8.90;99.90;;;;;;5121389;27;992;-67
2022/11/06 05:11:18;;;;;;;;;;;8.80;99.90;;;;;;5121644;27;1044;-67
2022/11/06 05:13:44;;;;;;;;;;;8.80;99.90;;;;;;5120781;27;1039;-67
2022/11/06 05:16:09;;;;;;;;;;;8.80;99.90;;;;;;5120989;27;1992;-67
2022/11/06 05:18:35;;;;;;;;;;;8.80;99.90;;;;;;5122004;27;977;-66
2022/11/06 05:23:45;;;;;;;;;;;8.90;99.90;;;;;;5120805;27;995;-67
2022/11/06 05:26:11;;;;;;;;;;;8.90;99.90;;;;;;5121567;27;1352;-67
2022/11/06 05:28:37;;;;;;;;;;;8.90;99.90;;;;;;5121792;27;1036;-67
2022/11/06 05:31:02;;;;;;;;;;;8.90;99.90;;;;;;5120710;27;1389;-67
2022/11/06 05:33:28;;;;;;;;;;;8.90;99.90;;;;;;5102137;27;980;-67
2022/11/06 05:35:53;;;;;;;;;;;8.90;99.90;;;;;;5121140;27;1979;-67
2022/11/06 05:38:19;;;;;;;;;;;8.90;99.90;;;;;;5119874;27;1121;-67
2022/11/06 05:40:45;;;;;;;;;;;8.90;99.90;;;;;;5120344;27;970;-67
2022/11/06 05:43:11;;;;;;;;;;;8.90;99.90;;;;;;5121031;27;1088;-67
2022/11/06 05:45:37;;;;;;;;;;;8.90;99.90;;;;;;5119667;27;1116;-67
2022/11/06 05:48:02;;;;;;;;;;;8.90;99.90;;;;;;5119828;27;1023;-67
2022/11/06 05:50:28;;;;;;;;;;;8.90;99.90;;;;;;5119195;27;1183;-67
2022/11/06 05:52:54;;;;;;;;;;;8.90;99.90;;;;;;5105342;27;1279;-67
2022/11/06 05:55:19;;;;;;;;;;;9.00;99.90;;;;;;5105126;27;1913;-67
2022/11/06 05:57:45;;;;;;;;;;;9.00;99.90;;;;;;5104975;28;1081;-67
2022/11/06 06:00:11;;;;;;;;;;;9.00;99.90;;;;;;5105503;27;1055;-67
2022/11/06 06:02:38;;;;;;;;;;;9.00;99.90;;;;;;5104996;27;1060;-67
2022/11/06 06:05:05;;;;;;;;;;;9.10;99.90;;;;;;5105419;27;1291;-67
2022/11/06 06:07:30;;;;;;;;;;;9.00;99.90;;;;;;5104044;28;1211;-67
2022/11/06 06:09:56;;;;;;;;;;;9.10;99.90;;;;;;5105395;27;911;-67
2022/11/06 06:12:25;;;;;;;;;;;9.10;99.90;;;;;;5105402;27;1049;-67
2022/11/06 06:14:51;;;;;;;;;;;9.10;99.90;;;;;;5104282;27;1918;-67
2022/11/06 06:17:16;;;;;;;;;;;9.20;99.90;;;;;;5104129;28;1041;-67
2022/11/06 06:19:42;;;;;;;;;;;9.10;99.90;;;;;;5104156;27;1147;-67
2022/11/06 06:22:08;;;;;;;;;;;9.10;99.90;;;;;;5106006;27;1118;-67
2022/11/06 06:24:34;;;;;;;;;;;9.20;99.90;;;;;;5105062;27;1187;-67
2022/11/06 06:27:00;;;;;;;;;;;9.10;99.90;;;;;;5104401;27;1034;-67
2022/11/06 06:29:25;;;;;;;;;;;9.10;99.90;;;;;;5106947;27;957;-67
2022/11/06 06:31:51;;;;;;;;;;;9.10;99.90;;;;;;5103152;28;1492;-67
2022/11/06 06:34:17;;;;;;;;;;;9.20;99.90;;;;;;5104827;27;1047;-67
2022/11/06 06:36:42;;;;;;;;;;;9.10;99.90;;;;;;5104431;28;1898;-67
2022/11/06 06:39:08;;;;;;;;;;;9.10;99.90;;;;;;5107013;27;1027;-67
2022/11/06 06:41:33;;;;;;;;;;;9.10;99.90;;;;;;5104186;27;1129;-67
2022/11/06 06:43:59;;;;;;;;;;;9.20;99.90;;;;;;5106959;27;1093;-67
2022/11/06 06:46:25;;;;;;;;;;;9.20;99.90;;;;;;5081980;28;1157;-67
2022/11/06 06:48:50;;;;;;;;;;;9.20;99.90;;;;;;5100931;27;1152;-67
2022/11/06 06:51:16;;;;;;;;;;;9.30;99.90;;;;;;5102173;27;1253;-67
2022/11/06 06:53:41;;;;;;;;;;;9.30;99.90;;;;;;5081334;28;1279;-67
2022/11/06 06:56:08;;;;;;;;;;;9.40;99.90;;;;;;5099090;28;1913;-67
2022/11/06 06:58:34;;;;;;;;;;;9.40;99.90;;;;;;5102698;27;1080;-67
2022/11/06 07:01:01;;;;;;;;;;;9.40;99.90;;;;;;5081643;28;1024;-67
2022/11/06 07:03:27;;;;;;;;;;;9.40;99.90;;;;;;5106422;27;1069;-67
2022/11/06 07:05:52;;;;;;;;;;;9.40;99.90;;;;;;5106287;27;1524;-67
2022/11/06 07:08:18;;;;;;;;;;;9.40;99.90;;;;;;5104639;27;1097;-67
2022/11/06 07:10:44;;;;;;;;;;;9.30;99.90;;;;;;5105891;27;1020;-67
2022/11/06 07:13:10;;;;;;;;;;;9.40;99.90;;;;;;5106274;27;1247;-67
2022/11/06 07:15:35;;;;;;;;;;;9.30;99.90;;;;;;5100421;28;1960;-67
2022/11/06 07:18:02;;;;;;;;;;;9.40;99.90;;;;;;5100692;28;1112;-67
2022/11/06 07:20:28;;;;;;;;;;;9.40;99.90;;;;;;5102597;27;1085;-67
2022/11/06 07:22:53;;;;;;;;;;;9.40;99.90;;;;;;5101542;27;1000;-67
2022/11/06 07:25:19;;;;;;;;;;;9.40;99.90;;;;;;5106055;27;957;-67
2022/11/06 07:27:44;;;;;;;;;;;9.40;99.90;;;;;;5108727;27;1079;-67
2022/11/06 07:30:10;;;;;;;;;;;9.50;99.90;;;;;;5106282;27;1397;-67
2022/11/06 07:32:36;;;;;;;;;;;9.50;99.90;;;;;;5108699;27;1042;-67
2022/11/06 07:35:02;;;;;;;;;;;9.50;99.90;;;;;;5102704;27;1914;-66
2022/11/06 07:37:27;;;;;;;;;;;9.60;99.90;;;;;;5104906;27;1028;-67
2022/11/06 07:39:53;;;;;;;;;;;9.60;99.90;;;;;;5103523;27;995;-67
2022/11/06 07:42:18;;;;;;;;;;;9.70;99.90;;;;;;5102454;27;1036;-67
2022/11/06 07:44:56;;;;;;;;;;;9.80;99.90;;;;;;5080362;28;1056;-67
2022/11/06 07:47:21;;;;;;;;;;;9.70;99.90;;;;;;5103175;27;1035;-67
2022/11/06 07:49:47;;;;;;;;;;;9.80;99.90;;;;;;5109152;27;977;-67
2022/11/06 07:52:13;;;;;;;;;;;9.80;99.90;;;;;;5101396;27;1229;-67
2022/11/06 07:54:39;;;;;;;;;;;9.80;99.90;;;;;;5104661;27;1967;-68
2022/11/06 07:57:04;;;;;;;;;;;9.90;99.90;;;;;;5102596;27;1017;-67
2022/11/06 07:59:30;;;;;;;;;;;9.90;99.90;;;;;;5107323;27;1024;-67
2022/11/06 08:01:56;;;;;;;;;;;10.00;99.90;;;;;;5082875;28;1070;-67
2022/11/06 08:04:21;;;;;;;;;;;10.10;99.90;;;;;;5103599;28;1334;-67
2022/11/06 08:06:47;;;;;;;;;;;10.10;99.90;;;;;;5112669;27;1008;-67
2022/11/06 08:09:12;;;;;;;;;;;10.20;99.90;;;;;;5101689;28;1144;-67
2022/11/06 08:11:38;;;;;;;;;;;10.20;99.90;;;;;;5103687;28;1174;-67
2022/11/06 08:14:04;;;;;;;;;;;10.30;99.90;;;;;;5088701;28;1114;-67
2022/11/06 08:16:29;;;;;;;;;;;10.20;99.90;;;;;;5080200;28;1910;-67
2022/11/06 08:18:55;;;;;;;;;;;10.30;99.90;;;;;;5102294;28;973;-67
2022/11/06 08:21:21;;;;;;;;;;;10.20;99.90;;;;;;5089958;28;1031;-67
2022/11/06 08:23:46;;;;;;;;;;;10.20;99.90;;;;;;5102057;28;1031;-67
2022/11/06 08:26:12;;;;;;;;;;;10.20;99.90;;;;;;5107781;28;988;-67
2022/11/06 08:28:38;;;;;;;;;;;10.30;99.90;;;;;;5103705;28;1178;-67
2022/11/06 08:31:04;;;;;;;;;;;10.20;99.90;;;;;;5104254;28;1341;-67
2022/11/06 08:33:30;;;;;;;;;;;10.20;99.90;;;;;;5102857;28;1096;-68
2022/11/06 08:35:55;;;;;;;;;;;10.10;99.90;;;;;;5105078;28;2013;-68
2022/11/06 08:38:21;;;;;;;;;;;10.10;99.90;;;;;;5107302;27;1100;-68
2022/11/06 08:40:47;;;;;;;;;;;10.10;99.90;;;;;;5107700;27;1065;-68
2022/11/06 08:43:12;;;;;;;;;;;10.10;99.90;;;;;;5105431;27;977;-67
2022/11/06 08:45:39;;;;;;;;;;;10.10;99.90;;;;;;5107450;27;1217;-67
2022/11/06 08:48:06;;;;;;;;;;;10.10;99.90;;;;;;5104798;27;1106;-68
2022/11/06 08:50:32;;;;;;;;;;;10.00;99.90;;;;;;5108543;27;1003;-68
2022/11/06 08:52:59;;;;;;;;;;;10.00;99.90;;;;;;5106457;27;1435;-68
2022/11/06 08:55:25;;;;;;;;;;;9.90;99.90;;;;;;5106463;27;1998;-68
2022/11/06 08:57:53;;;;;;;;;;;9.90;99.90;;;;;;5105545;27;1054;-68
2022/11/06 09:00:19;;;;;;;;;;;9.90;99.90;;;;;;5105330;27;1077;-67
2022/11/06 09:02:44;;;;;;;;;;;10.00;99.90;;;;;;5087188;28;1006;-67
2022/11/06 09:05:10;;;;;;;;;;;10.10;99.90;;;;;;5109834;27;1527;-67
2022/11/06 09:07:36;;;;;;;;;;;10.10;99.90;;;;;;5104946;27;1016;-67
2022/11/06 09:10:01;;;;;;;;;;;10.10;99.90;;;;;;5092642;27;1044;-68
2022/11/06 09:12:27;;;;;;;;;;;10.20;99.90;;;;;;5110997;27;1049;-68
2022/11/06 09:14:53;;;;;;;;;;;10.20;99.90;;;;;;5105807;27;1967;-68
2022/11/06 09:17:22;;;;;;;;;;;10.20;99.90;;;;;;5108215;27;1081;-68
2022/11/06 09:19:49;;;;;;;;;;;10.20;99.90;;;;;;5107198;27;1035;-68
2022/11/06 09:22:14;;;;;;;;;;;10.10;99.90;;;;;;5108472;27;1044;-68
2022/11/06 09:24:40;;;;;;;;;;;10.10;99.90;;;;;;5107863;27;971;-68
2022/11/06 09:27:06;;;;;;;;;;;10.20;99.90;;;;;;5104950;27;1188;-68
2022/11/06 09:29:31;;;;;;;;;;;10.20;99.90;;;;;;5099113;27;1124;-68
2022/11/06 09:31:57;;;;;;;;;;;10.20;99.90;;;;;;5106297;27;1462;-68
2022/11/06 09:34:22;;;;;;;;;;;10.30;99.90;;;;;;5103526;28;1058;-68
2022/11/06 09:36:48;;;;;;;;;;;10.40;99.90;;;;;;5103105;27;1909;-68
2022/11/06 09:39:14;;;;;;;;;;;10.50;99.90;;;;;;5103515;27;1138;-68
2022/11/06 09:41:43;;;;;;;;;;;10.60;99.90;;;;;;5098644;27;1181;-67
2022/11/06 09:44:18;;;;;;;;;;;10.60;99.90;;;;;;5104099;27;1139;-68
2022/11/06 09:46:45;;;;;;;;;;;10.70;99.90;;;;;;5106180;27;1154;-67
2022/11/06 09:49:13;;;;;;;;;;;10.80;99.90;;;;;;5101913;27;1100;-67
2022/11/06 09:51:49;;;;;;;;;;;10.90;99.90;;;;;;5104010;27;1243;-67
2022/11/06 09:54:18;;;;;;;;;;;10.80;99.90;;;;;;5108033;27;1209;-68
2022/11/06 09:56:46;;;;;;;;;;;10.90;99.90;;;;;;5103892;27;1910;-67
2022/11/06 09:59:15;;;;;;;;;;;10.90;99.90;;;;;;5101506;27;1136;-67
2022/11/06 10:01:42;;;;;;;;;;;11.00;99.90;;;;;;5109682;27;978;-67
2022/11/06 10:04:13;;;;;;;;;;;11.00;99.90;;;;;;5104734;27;1347;-68
2022/11/06 10:06:39;;;;;;;;;;;11.10;99.90;;;;;;5102163;27;1127;-68
2022/11/06 10:09:05;;;;;;;;;;;11.20;99.90;;;;;;5105982;27;1000;-68
2022/11/06 10:11:35;;;;;;;;;;;11.40;99.90;;;;;;5104558;27;1067;-68
2022/11/06 10:14:06;;;;;;;;;;;11.40;99.90;;;;;;5101521;27;3634;-67
2022/11/06 10:16:40;;;;;;;;;;;11.40;99.90;;;;;;5105394;27;3587;-67
2022/11/06 10:19:07;;;;;;;;;;;11.40;99.90;;;;;;5101617;27;3829;-68
2022/11/06 10:21:39;;;;;;;;;;;11.30;99.90;;;;;;5105150;27;3658;-67
2022/11/06 10:24:19;;;;;;;;;;;11.30;99.90;;;;;;5102476;27;1027;-68
2022/11/06 10:26:48;;;;;;;;;;;11.30;99.90;;;;;;5097442;28;1039;-68
2022/11/06 10:29:26;;;;;;;;;;;11.30;99.90;;;;;;5106372;27;1058;-68
2022/11/06 10:32:03;;;;;;;;;;;11.40;99.90;;;;;;5109744;27;1266;-67
2022/11/06 10:34:42;;;;;;;;;;;11.40;99.90;;;;;;5100313;27;3944;-68
2022/11/06 10:37:11;;;;;;;;;;;11.40;99.90;;;;;;5108755;27;3468;-68
2022/11/06 10:39:37;;;;;;;;;;;11.40;99.90;;;;;;5081203;27;3454;-69
2022/11/06 10:42:04;;;;;;;;;;;11.30;99.90;;;;;;5102352;27;1171;-69
2022/11/06 10:44:35;;;;;;;;;;;11.10;99.90;;;;;;5099896;28;1099;-69
2022/11/06 10:47:10;;;;;;;;;;;11.10;99.90;;;;;;5105137;27;1056;-68
2022/11/06 10:49:40;;;;;;;;;;;11.10;99.90;;;;;;5105473;27;1027;-69
2022/11/06 10:52:13;;;;;;;;;;;11.10;99.90;;;;;;5102187;27;2773;-69
2022/11/06 10:54:39;;;;;;;;;;;11.00;99.90;;;;;;5106858;27;1906;-69
2022/11/06 10:57:19;;;;;;;;;;;11.10;99.90;;;;;;5083122;27;1129;-69
2022/11/06 10:59:46;;;;;;;;;;;11.10;99.90;;;;;;5107684;27;1126;-68
2022/11/06 11:02:22;;;;;;;;;;;11.10;99.90;;;;;;5106226;27;969;-68
2022/11/06 11:04:47;;;;;;;;;;;11.10;99.90;;;;;;5106613;27;1215;-69
2022/11/06 11:07:14;;;;;;;;;;;11.20;99.90;;;;;;5106689;27;964;-69
2022/11/06 11:09:39;;;;;;;;;;;11.40;99.90;;;;;;5104546;27;1002;-68
2022/11/06 11:12:18;;;;;;;;;;;11.30;99.90;;;;;;5104701;27;1154;-68
2022/11/06 11:14:43;;;;;;;;;;;11.30;99.90;;;;;;5102464;27;1972;-68
2022/11/06 11:17:09;;;;;;;;;;;11.30;99.90;;;;;;5104483;27;1010;-69
2022/11/06 11:19:36;;;;;;;;;;;11.20;99.90;;;;;;5102373;27;1095;-68
2022/11/06 11:22:03;;;;;;;;;;;11.20;99.90;;;;;;5102940;27;1023;-68
2022/11/06 11:24:29;;;;;;;;;;;11.30;99.90;;;;;;5105010;27;1774;-68
2022/11/06 11:26:59;;;;;;;;;;;11.30;99.90;;;;;;5103854;27;1012;-69
2022/11/06 11:29:27;;;;;;;;;;;11.00;99.90;;;;;;5102056;27;1061;-69
2022/11/06 11:31:56;;;;;;;;;;;11.30;99.90;;;;;;5107228;27;1512;-69
2022/11/06 11:34:25;;;;;;;;;;;11.30;99.90;;;;;;5104699;27;1075;-69
2022/11/06 11:36:54;;;;;;;;;;;11.20;99.90;;;;;;5100212;27;1973;-69
2022/11/06 11:39:22;;;;;;;;;;;11.20;99.90;;;;;;5103348;27;1128;-69
2022/11/06 11:41:48;;;;;;;;;;;11.20;99.90;;;;;;5103754;27;1116;-68
2022/11/06 11:44:16;;;;;;;;;;;11.20;99.90;;;;;;5103816;27;1047;-69
2022/11/06 11:46:50;;;;;;;;;;;11.20;99.90;;;;;;5099633;27;1007;-68
2022/11/06 11:49:34;;;;;;;;;;;11.20;99.90;;;;;;5102828;27;1029;-69
2022/11/06 11:52:01;;;;;;;;;;;11.20;99.90;;;;;;5096254;28;1324;-68
2022/11/06 11:54:29;;;;;;;;;;;11.20;99.90;;;;;;5080610;28;1067;-68
2022/11/06 11:56:56;;;;;;;;;;;11.10;99.90;;;;;;5097861;28;1957;-68
2022/11/06 11:59:25;;;;;;;;;;;11.20;99.90;;;;;;5098019;28;1259;-68
2022/11/06 12:01:51;;;;;;;;;;;11.20;99.90;;;;;;5098378;28;1156;-69
2022/11/06 12:04:19;;;;;;;;;;;11.30;99.90;;;;;;5097602;28;1327;-68
2022/11/06 12:06:48;;;;;;;;;;;11.30;99.90;;;;;;5098721;28;1067;-68
2022/11/06 12:09:14;;;;;;;;;;;11.30;99.90;;;;;;5096529;28;1110;-68
2022/11/06 12:11:41;;;;;;;;;;;11.30;99.90;;;;;;5078182;28;1302;-68
2022/11/06 12:14:16;;;;;;;;;;;11.30;99.90;;;;;;5095997;28;1075;-68
2022/11/06 12:16:44;;;;;;;;;;;11.30;99.90;;;;;;5096374;28;2351;-68
2022/11/06 12:19:09;;;;;;;;;;;11.30;99.90;;;;;;5096389;28;1072;-68
2022/11/06 12:21:38;;;;;;;;;;;11.30;99.90;;;;;;5098379;28;1059;-68
2022/11/06 12:24:14;;;;;;;;;;;11.50;99.90;;;;;;5098296;28;1021;-68
2022/11/06 12:26:44;;;;;;;;;;;11.60;99.90;;;;;;5097347;28;1008;-68
2022/11/06 12:29:13;;;;;;;;;;;11.60;99.90;;;;;;5097986;28;1048;-70
2022/11/06 12:31:49;;;;;;;;;;;11.70;99.90;;;;;;5098213;28;1501;-70
2022/11/06 12:34:22;;;;;;;;;;;11.80;99.90;;;;;;5096190;28;1101;-66
2022/11/06 12:36:56;;;;;;;;;;;11.80;99.90;;;;;;5097890;28;1913;-67
2022/11/06 12:39:26;;;;;;;;;;;11.90;99.90;;;;;;5097804;28;1019;-67
2022/11/06 12:41:54;;;;;;;;;;;12.00;99.90;;;;;;5097506;28;1088;-65
2022/11/06 12:44:20;;;;;;;;;;;12.00;99.90;;;;;;5097504;28;1133;-68
2022/11/06 12:46:50;;;;;;;;;;;12.10;99.90;;;;;;5095939;28;1021;-69
2022/11/06 12:49:23;;;;;;;;;;;12.20;99.90;;;;;;5079306;28;1087;-70
2022/11/06 12:52:07;;;;;;;;;;;12.60;99.90;;;;;;5099020;28;1356;-69
2022/11/06 12:54:33;;;;;;;;;;;12.90;99.90;;;;;;5100745;28;1069;-69
2022/11/06 12:57:08;;;;;;;;;;;13.00;99.90;;;;;;5103393;28;1965;-70
2022/11/06 12:59:34;;;;;;;;;;;12.90;99.90;;;;;;5106068;28;1167;-70
2022/11/06 13:02:12;;;;;;;;;;;12.80;99.90;;;;;;5102240;28;1058;-71
2022/11/06 13:04:38;;;;;;;;;;;12.70;99.90;;;;;;5105649;28;1358;-70
2022/11/06 13:07:12;;;;;;;;;;;12.70;99.90;;;;;;5103837;28;1007;-71
2022/11/06 13:09:45;;;;;;;;;;;12.60;99.90;;;;;;5100806;28;3267;-71
2022/11/06 13:12:19;;;;;;;;;;;12.50;99.90;;;;;;5097012;28;3280;-70
2022/11/06 13:15:03;;;;;;;;;;;12.50;99.90;;;;;;5104396;28;3163;-70
2022/11/06 13:17:34;;;;;;;;;;;12.50;99.90;;;;;;5079531;28;1266;-70
2022/11/06 13:20:03;;;;;;;;;;;12.40;99.90;;;;;;5100697;28;1035;-69
2022/11/06 13:22:32;;;;;;;;;;;12.30;99.90;;;;;;5105168;28;992;-70
2022/11/06 13:25:06;;;;;;;;;;;12.20;99.90;;;;;;5105493;27;1029;-68
2022/11/06 13:27:37;;;;;;;;;;;12.20;99.90;;;;;;5103494;27;3258;-68
2022/11/06 13:30:09;;;;;;;;;;;12.10;99.90;;;;;;5083186;28;1288;-68
2022/11/06 13:32:36;;;;;;;;;;;11.90;99.90;;;;;;5111173;27;1398;-68
2022/11/06 13:35:02;;;;;;;;;;;11.90;99.90;;;;;;5107694;27;1953;-69
2022/11/06 13:37:38;;;;;;;;;;;11.90;99.90;;;;;;5102592;27;1176;-69
2022/11/06 13:40:15;;;;;;;;;;;12.00;99.90;;;;;;5104290;27;1004;-68
2022/11/06 13:42:44;;;;;;;;;;;11.90;99.90;;;;;;5102314;27;1359;-68
2022/11/06 13:45:13;;;;;;;;;;;11.90;99.90;;;;;;5105509;27;1051;-69
2022/11/06 13:47:53;;;;;;;;;;;11.90;99.90;;;;;;5107685;27;995;-68
2022/11/06 13:50:26;;;;;;;;;;;11.90;99.90;;;;;;5106235;27;1037;-69
2022/11/06 13:52:56;;;;;;;;;;;11.90;99.90;;;;;;5107834;27;1424;-69
2022/11/06 13:55:26;;;;;;;;;;;11.90;99.90;;;;;;5107209;27;2016;-69
2022/11/06 13:58:00;;;;;;;;;;;11.80;99.90;;;;;;5101325;27;1363;-69
2022/11/06 14:00:27;;;;;;;;;;;11.80;99.90;;;;;;5102389;27;1049;-69
2022/11/06 14:02:54;;;;;;;;;;;11.80;99.90;;;;;;5102323;27;1085;-69
2022/11/06 14:05:27;;;;;;;;;;;11.80;99.90;;;;;;5105760;27;1452;-68
2022/11/06 14:07:54;;;;;;;;;;;11.80;99.90;;;;;;5108269;27;1021;-69
2022/11/06 14:10:21;;;;;;;;;;;11.80;99.90;;;;;;5101242;27;1059;-68
2022/11/06 14:12:48;;;;;;;;;;;11.80;99.90;;;;;;5101577;27;1047;-68
2022/11/06 14:15:16;;;;;;;;;;;11.80;99.90;;;;;;5106737;27;1975;-68
2022/11/06 14:17:52;;;;;;;;;;;11.80;99.90;;;;;;5101543;27;1017;-68
2022/11/06 14:20:29;;;;;;;;;;;11.90;99.90;;;;;;5107623;27;1079;-69
2022/11/06 14:22:55;;;;;;;;;;;11.90;99.90;;;;;;5101566;27;1016;-68
2022/11/06 14:25:26;;;;;;;;;;;11.90;99.90;;;;;;5104035;27;991;-68
2022/11/06 14:27:52;;;;;;;;;;;12.00;99.90;;;;;;5100869;28;984;-68
2022/11/06 14:30:41;;;;;;;;;;;11.90;99.90;;;;;;5102755;27;1188;-68
2022/11/06 14:33:08;;;;;;;;;;;12.00;99.90;;;;;;5104449;27;964;-68
2022/11/06 14:35:34;;;;;;;;;;;12.00;99.90;;;;;;5106832;27;1976;-71
2022/11/06 14:38:09;;;;;;;;;;;12.00;99.90;;;;;;5081266;28;1091;-68
2022/11/06 14:40:35;;;;;;;;;;;12.00;99.90;;;;;;5104372;27;996;-68
2022/11/06 14:43:10;;;;;;;;;;;12.00;99.90;;;;;;5104143;27;1003;-68
2022/11/06 14:45:36;;;;;;;;;;;12.00;99.90;;;;;;5100795;27;1706;-68
2022/11/06 14:48:02;;;;;;;;;;;12.00;99.90;;;;;;5099057;28;1307;-68
2022/11/06 14:50:31;;;;;;;;;;;11.90;99.90;;;;;;5107275;27;1100;-68
2022/11/06 14:52:59;;;;;;;;;;;11.90;99.90;;;;;;5105328;27;1408;-69
2022/11/06 14:55:39;;;;;;;;;;;11.90;99.90;;;;;;5100043;28;1963;-68
2022/11/06 14:58:13;;;;;;;;;;;11.90;99.90;;;;;;5108905;27;973;-68